createdAt,value
2023-03-21T00:04:28.434Z,2.30
2023-03-21T00:09:32.860Z,2.30
2023-03-21T00:14:34.596Z,2.63
2023-03-21T00:19:38.553Z,2.10
2023-03-21T00:24:40.703Z,2.43
2023-03-21T00:29:42.328Z,2.27
2023-03-21T00:35:00.232Z,2.20
2023-03-21T00:40:16.382Z,2.40
2023-03-21T00:45:25.374Z,2.93
2023-03-21T00:50:28.546Z,3.20
2023-03-21T00:55:30.245Z,2.50
2023-03-21T01:00:33.109Z,2.47
2023-03-21T01:05:56.834Z,2.70
2023-03-21T01:11:03.277Z,2.60
2023-03-21T01:16:06.337Z,2.70
2023-03-21T01:21:13.923Z,2.40
2023-03-21T01:26:15.929Z,2.60
2023-03-21T01:31:19.109Z,2.60
2023-03-21T01:36:26.349Z,2.77
2023-03-21T01:41:43.124Z,2.47
2023-03-21T01:47:11.921Z,2.80
2023-03-21T01:52:49.898Z,2.70
2023-03-21T01:58:06.659Z,2.63
2023-03-21T02:03:35.400Z,2.70
2023-03-21T02:08:55.455Z,2.60
2023-03-21T02:14:06.337Z,2.70
2023-03-21T02:20:06.846Z,2.73
2023-03-21T02:25:21.928Z,2.83
2023-03-21T02:31:01.888Z,2.57
2023-03-21T02:36:35.224Z,2.50
2023-03-21T02:41:51.090Z,2.83
2023-03-21T02:47:22.083Z,3.03
2023-03-21T02:52:38.773Z,2.77
2023-03-21T02:57:44.261Z,2.80
2023-03-21T03:02:54.607Z,2.50
2023-03-21T03:08:06.876Z,2.53
2023-03-21T03:13:21.882Z,3.27
2023-03-21T03:18:33.624Z,2.67
2023-03-21T03:23:52.946Z,3.00
2023-03-21T03:28:57.374Z,2.33
2023-03-21T03:34:02.467Z,2.57
2023-03-21T03:39:08.909Z,2.57
2023-03-21T03:44:11.582Z,3.00
2023-03-21T03:49:26.220Z,2.80
2023-03-21T03:54:32.723Z,2.73
2023-03-21T03:59:38.099Z,2.63
2023-03-21T04:04:52.826Z,2.93
2023-03-21T04:09:55.096Z,2.53
2023-03-21T04:15:04.762Z,2.83
2023-03-21T04:20:20.978Z,3.17
2023-03-21T04:25:33.989Z,2.63
2023-03-21T04:30:39.873Z,2.50
2023-03-21T04:35:48.058Z,2.83
2023-03-21T04:40:49.841Z,2.73
2023-03-21T04:45:52.499Z,2.97
2023-03-21T04:50:54.688Z,3.07
2023-03-21T04:55:57.865Z,2.60
2023-03-21T05:01:02.487Z,2.80
2023-03-21T05:06:04.475Z,2.50
2023-03-21T05:11:06.199Z,2.87
2023-03-21T05:16:08.475Z,3.13
2023-03-21T05:21:13.397Z,3.73
2023-03-21T05:26:15.651Z,3.60
2023-03-21T05:31:26.458Z,2.90
2023-03-21T05:36:39.009Z,3.20
2023-03-21T05:41:43.691Z,2.73
2023-03-21T05:46:45.519Z,3.23
2023-03-21T05:51:47.881Z,2.87
2023-03-21T05:56:49.774Z,3.00
2023-03-21T06:02:02.212Z,2.90
2023-03-21T06:07:04.413Z,3.05
2023-03-21T06:12:08.304Z,3.50
2023-03-21T06:17:26.086Z,3.13
2023-03-21T06:22:34.059Z,2.80
2023-03-21T06:27:37.680Z,3.07
2023-03-21T06:32:41.408Z,2.80
2023-03-21T06:37:49.441Z,3.20
2023-03-21T06:42:51.918Z,3.50
2023-03-21T06:47:54.497Z,3.50
2023-03-21T06:53:08.496Z,3.33
2023-03-21T06:58:28.014Z,2.97
2023-03-21T07:03:31.462Z,3.13
2023-03-21T07:08:35.440Z,3.50
2023-03-21T07:13:37.650Z,3.60
2023-03-21T07:18:39.749Z,3.23
2023-03-21T07:23:41.443Z,3.30
2023-03-21T07:28:43.409Z,3.57
2023-03-21T07:33:45.335Z,3.40
2023-03-21T07:38:46.989Z,3.03
2023-03-21T07:43:50.388Z,3.60
2023-03-21T07:48:53.489Z,3.40
2023-03-21T07:53:55.155Z,3.60
2023-03-21T07:58:56.879Z,3.33
2023-03-21T08:03:58.483Z,3.40
2023-03-21T08:09:00.347Z,2.93
2023-03-21T08:14:02.847Z,3.33
2023-03-21T08:19:05.346Z,3.10
2023-03-21T08:24:07.118Z,3.47
2023-03-21T08:29:09.384Z,3.97
2023-03-21T08:34:10.948Z,3.60
2023-03-21T08:39:12.698Z,3.70
2023-03-21T08:44:15.106Z,4.80
2023-03-21T08:49:16.886Z,3.70
2023-03-21T08:54:22.989Z,4.03
2023-03-21T08:59:24.594Z,3.57
2023-03-21T09:04:27.161Z,3.30
2023-03-21T09:09:29.091Z,3.00
2023-03-21T09:14:30.783Z,3.27
2023-03-21T09:19:39.307Z,3.27
2023-03-21T09:24:42.189Z,3.40
2023-03-21T09:29:45.336Z,3.57
2023-03-21T09:34:48.516Z,3.20
2023-03-21T09:39:52.108Z,3.33
2023-03-21T09:45:21.253Z,3.07
2023-03-21T09:50:32.354Z,3.63
2023-03-21T09:55:37.790Z,3.07
2023-03-21T10:00:43.368Z,3.00
2023-03-21T10:05:49.305Z,2.87
2023-03-21T10:10:54.534Z,3.07
2023-03-21T10:15:57.488Z,3.17
2023-03-21T10:21:03.118Z,2.93
2023-03-21T10:26:06.556Z,3.03
2023-03-21T10:31:09.928Z,3.60
2023-03-21T10:36:19.328Z,3.20
2023-03-21T10:41:21.306Z,3.33
2023-03-21T10:46:27.428Z,2.93
2023-03-21T10:51:34.011Z,2.90
2023-03-21T10:56:39.160Z,3.20
2023-03-21T11:01:43.124Z,2.93
2023-03-21T11:12:37.711Z,3.27
2023-03-21T11:17:39.383Z,2.90
2023-03-21T11:22:43.478Z,3.13
2023-03-21T11:27:50.529Z,3.53
2023-03-21T11:33:03.748Z,2.80
2023-03-21T11:38:07.432Z,3.70
2023-03-21T11:43:28.411Z,2.70
2023-03-21T11:48:30.707Z,3.10
2023-03-21T11:53:41.661Z,2.63
2023-03-21T11:58:52.125Z,2.77
2023-03-21T12:04:31.772Z,2.83
2023-03-21T12:09:52.224Z,3.70
2023-03-21T12:15:18.969Z,2.70
2023-03-21T12:20:40.906Z,2.60
2023-03-21T12:25:47.817Z,2.60
2023-03-21T12:31:08.045Z,2.60
2023-03-21T12:36:57.347Z,3.03
2023-03-21T12:42:20.330Z,2.97
2023-03-21T12:47:24.749Z,3.03
2023-03-21T12:52:30.633Z,3.03
2023-03-21T12:57:35.612Z,3.30
2023-03-21T13:02:58.118Z,2.90
2023-03-21T13:08:01.471Z,2.90
2023-03-21T13:13:11.087Z,2.67
2023-03-21T13:18:16.949Z,2.73
2023-03-21T13:23:21.499Z,3.10
2023-03-21T13:28:28.933Z,3.00
2023-03-21T13:33:30.583Z,3.00
2023-03-21T13:38:33.747Z,2.37
2023-03-21T13:44:03.329Z,2.63
2023-03-21T13:49:07.569Z,2.73
2023-03-21T13:54:09.026Z,2.83
2023-03-21T13:59:12.877Z,3.00
2023-03-21T14:04:17.921Z,2.83
2023-03-21T14:09:38.526Z,2.23
2023-03-21T14:14:50.677Z,2.83
2023-03-21T14:19:57.792Z,2.53
2023-03-21T14:25:00.964Z,2.70
2023-03-21T14:30:05.517Z,2.50
2023-03-21T14:35:11.501Z,2.03
2023-03-21T14:40:26.169Z,2.50
2023-03-21T14:45:29.494Z,2.50
2023-03-21T14:50:41.440Z,2.37
2023-03-21T14:55:46.270Z,2.10
2023-03-21T15:00:52.670Z,2.20
2023-03-21T15:05:57.978Z,2.27
2023-03-21T15:11:06.958Z,2.53
2023-03-21T15:16:09.945Z,2.50
2023-03-21T15:21:17.099Z,2.47
2023-03-21T15:26:21.516Z,2.57
2023-03-21T15:31:25.120Z,2.73
2023-03-21T15:36:29.342Z,2.90
2023-03-21T15:41:32.359Z,2.53
2023-03-21T15:46:47.731Z,2.60
2023-03-21T15:51:52.878Z,2.60
2023-03-21T15:57:09.554Z,2.37
2023-03-21T16:02:23.114Z,2.30
2023-03-21T16:07:26.031Z,2.17
2023-03-21T16:12:27.740Z,2.20
2023-03-21T16:17:39.535Z,2.30
2023-03-21T16:22:41.460Z,2.20
2023-03-21T16:27:43.646Z,2.30
2023-03-21T16:32:45.331Z,2.30
2023-03-21T16:37:48.301Z,2.73
2023-03-21T16:42:49.958Z,2.20
2023-03-21T16:47:52.677Z,2.23
2023-03-21T16:52:55.715Z,2.10
2023-03-21T16:57:57.602Z,2.30
2023-03-21T17:03:05.982Z,3.10
2023-03-21T17:08:16.177Z,2.17
2023-03-21T17:13:17.754Z,2.47
2023-03-21T17:18:19.346Z,2.53
2023-03-21T17:23:21.025Z,2.30
2023-03-21T17:28:22.684Z,2.40
2023-03-21T17:33:25.116Z,2.50
2023-03-21T17:38:27.886Z,2.57
2023-03-21T17:43:29.656Z,2.13
2023-03-21T17:48:31.265Z,2.47
2023-03-21T17:53:32.890Z,2.50
2023-03-21T17:58:34.676Z,2.43
2023-03-21T18:03:36.361Z,2.77
2023-03-21T18:08:38.093Z,2.60
2023-03-21T18:13:40.657Z,2.77
2023-03-21T18:18:42.578Z,2.70
2023-03-21T18:23:44.527Z,3.00
2023-03-21T18:28:47.023Z,3.50
2023-03-21T18:33:50.234Z,3.00
2023-03-21T18:38:52.624Z,3.00
2023-03-21T18:44:07.341Z,3.03
2023-03-21T18:54:39.146Z,3.00
2023-03-21T18:59:41.138Z,2.93
2023-03-21T19:04:43.306Z,2.90
2023-03-21T19:10:13.956Z,3.00
2023-03-21T19:15:08.062Z,2.60
2023-03-21T19:20:11.862Z,3.40
2023-03-21T19:25:16.035Z,2.60
2023-03-21T19:30:17.797Z,2.83
2023-03-21T19:35:19.557Z,2.60
2023-03-21T19:40:21.475Z,3.40
2023-03-21T19:45:23.124Z,3.17
2023-03-21T19:50:57.959Z,3.23
2023-03-21T19:55:51.920Z,2.97
2023-03-21T20:00:53.778Z,3.60
2023-03-21T20:06:06.827Z,2.97
2023-03-21T20:11:08.476Z,2.90
2023-03-21T20:16:11.114Z,2.80
2023-03-21T20:21:17.491Z,2.70
2023-03-21T20:26:20.294Z,2.80
2023-03-21T20:31:24.042Z,2.97
2023-03-21T20:36:40.128Z,2.53
2023-03-21T20:41:43.078Z,3.17
2023-03-21T20:46:47.069Z,2.80
2023-03-21T20:57:12.237Z,2.80
2023-03-21T21:02:14.221Z,2.50
2023-03-21T21:07:21.095Z,2.40
2023-03-21T21:12:27.558Z,2.40
2023-03-21T21:17:57.909Z,2.53
2023-03-21T21:22:59.357Z,2.43
2023-03-21T21:28:02.376Z,2.47
2023-03-21T21:33:05.352Z,2.50
2023-03-21T21:38:07.406Z,2.60
2023-03-21T21:43:09.269Z,2.60
2023-03-21T21:48:11.684Z,2.40
2023-03-21T21:53:18.423Z,2.10
2023-03-21T21:58:21.061Z,2.33
2023-03-21T22:03:23.273Z,2.40
2023-03-21T22:08:24.995Z,2.70
2023-03-21T22:13:26.585Z,2.30
2023-03-21T22:18:28.212Z,2.20
2023-03-21T22:23:30.012Z,2.40
2023-03-21T22:28:31.640Z,2.37
2023-03-21T22:33:33.465Z,2.53
2023-03-21T22:38:36.971Z,2.47
2023-03-21T22:43:38.523Z,2.70
2023-03-21T22:48:40.268Z,2.60
2023-03-21T22:53:41.821Z,2.53
2023-03-21T22:58:43.808Z,3.30
2023-03-21T23:03:45.601Z,2.60
2023-03-21T23:08:47.148Z,2.57
2023-03-21T23:13:56.072Z,2.77
2023-03-21T23:19:04.608Z,3.60
2023-03-21T23:24:07.340Z,2.87
2023-03-21T23:29:10.258Z,3.17
2023-03-21T23:34:12.400Z,3.20
2023-03-21T23:39:14.225Z,3.33
2023-03-21T23:44:16.247Z,3.27
2023-03-21T23:49:17.973Z,3.20
2023-03-21T23:54:19.805Z,3.43
2023-03-21T23:59:21.935Z,3.50
